sensor_id;sensor_type;location;lat;lon;timestamp;pressure;altitude;pressure_sealevel;temperature;humidity
13013;BME280;22580;57.670;12.006;2023-11-19T00:00:18;101384.69;;;13.63;36.90
13013;BME280;22580;57.670;12.006;2023-11-19T00:02:45;101386.25;;;13.78;36.72
13013;BME280;22580;57.670;12.006;2023-11-19T00:05:13;101366.47;;;13.80;36.65
13013;BME280;22580;57.670;12.006;2023-11-19T00:07:41;101370.41;;;13.26;37.48
13013;BME280;22580;57.670;12.006;2023-11-19T00:10:13;101373.34;;;13.47;37.12
13013;BME280;22580;57.670;12.006;2023-11-19T00:12:44;101362.59;;;13.47;37.37
13013;BME280;22580;57.670;12.006;2023-11-19T00:15:12;101355.53;;;13.46;37.50
13013;BME280;22580;57.670;12.006;2023-11-19T00:17:45;101350.22;;;13.81;36.94
13013;BME280;22580;57.670;12.006;2023-11-19T00:20:14;101349.94;;;13.73;37.14
13013;BME280;22580;57.670;12.006;2023-11-19T00:22:42;101327.34;;;13.52;37.43
13013;BME280;22580;57.670;12.006;2023-11-19T00:25:10;101334.56;;;13.51;37.67
13013;BME280;22580;57.670;12.006;2023-11-19T00:27:37;101327.41;;;13.39;37.88
13013;BME280;22580;57.670;12.006;2023-11-19T00:30:05;101317.16;;;13.20;38.18
13013;BME280;22580;57.670;12.006;2023-11-19T00:32:33;101322.78;;;13.41;37.98
13013;BME280;22580;57.670;12.006;2023-11-19T00:35:00;101307.13;;;13.35;37.98
13013;BME280;22580;57.670;12.006;2023-11-19T00:37:28;101309.28;;;13.54;37.86
13013;BME280;22580;57.670;12.006;2023-11-19T00:39:56;101307.25;;;13.92;37.37
13013;BME280;22580;57.670;12.006;2023-11-19T00:42:24;101271.84;;;13.63;37.42
13013;BME280;22580;57.670;12.006;2023-11-19T00:44:51;101307.97;;;13.59;37.67
13013;BME280;22580;57.670;12.006;2023-11-19T00:47:18;101294.88;;;13.78;37.66
13013;BME280;22580;57.670;12.006;2023-11-19T00:49:46;101289.78;;;13.98;37.09
13013;BME280;22580;57.670;12.006;2023-11-19T00:52:15;101287.09;;;13.98;37.07
13013;BME280;22580;57.670;12.006;2023-11-19T00:54:42;101284.38;;;13.87;37.07
13013;BME280;22580;57.670;12.006;2023-11-19T00:57:11;101277.59;;;14.05;36.83
13013;BME280;22580;57.670;12.006;2023-11-19T00:59:38;101275.75;;;14.05;36.89
13013;BME280;22580;57.670;12.006;2023-11-19T01:02:04;101278.81;;;14.01;37.27
13013;BME280;22580;57.670;12.006;2023-11-19T01:04:33;101269.25;;;13.86;37.30
13013;BME280;22580;57.670;12.006;2023-11-19T01:07:01;101270.59;;;13.91;37.37
13013;BME280;22580;57.670;12.006;2023-11-19T01:09:30;101265.28;;;14.14;37.08
13013;BME280;22580;57.670;12.006;2023-11-19T01:12:00;101258.13;;;13.79;37.41
13013;BME280;22580;57.670;12.006;2023-11-19T01:14:28;101249.59;;;13.96;37.37
13013;BME280;22580;57.670;12.006;2023-11-19T01:16:57;101224.78;;;13.82;37.07
13013;BME280;22580;57.670;12.006;2023-11-19T01:19:24;101220.38;;;13.92;37.06
13013;BME280;22580;57.670;12.006;2023-11-19T01:21:53;101215.28;;;14.00;36.95
13013;BME280;22580;57.670;12.006;2023-11-19T01:24:21;101221.59;;;13.88;37.40
13013;BME280;22580;57.670;12.006;2023-11-19T01:26:48;101221.47;;;13.78;37.40
13013;BME280;22580;57.670;12.006;2023-11-19T01:29:15;101211.22;;;13.94;37.42
13013;BME280;22580;57.670;12.006;2023-11-19T01:31:45;101204.78;;;14.08;37.11
13013;BME280;22580;57.670;12.006;2023-11-19T01:34:13;101195.50;;;14.23;37.05
13013;BME280;22580;57.670;12.006;2023-11-19T01:36:41;101194.78;;;14.21;36.88
13013;BME280;22580;57.670;12.006;2023-11-19T01:39:08;101174.34;;;13.85;37.33
13013;BME280;22580;57.670;12.006;2023-11-19T01:41:35;101175.31;;;13.95;37.40
13013;BME280;22580;57.670;12.006;2023-11-19T01:44:03;101160.53;;;13.90;37.09
13013;BME280;22580;57.670;12.006;2023-11-19T01:46:30;101176.03;;;13.97;37.16
13013;BME280;22580;57.670;12.006;2023-11-19T01:49:00;101165.28;;;13.75;37.55
13013;BME280;22580;57.670;12.006;2023-11-19T01:51:28;101156.25;;;13.98;37.06
13013;BME280;22580;57.670;12.006;2023-11-19T01:53:55;101151.13;;;14.18;37.05
13013;BME280;22580;57.670;12.006;2023-11-19T01:56:25;101152.84;;;13.85;37.54
13013;BME280;22580;57.670;12.006;2023-11-19T01:58:53;101152.84;;;13.85;37.48
13013;BME280;22580;57.670;12.006;2023-11-19T02:01:21;101144.28;;;14.02;37.44
13013;BME280;22580;57.670;12.006;2023-11-19T02:03:48;101131.22;;;14.09;37.03
13013;BME280;22580;57.670;12.006;2023-11-19T02:06:17;101132.91;;;13.99;37.38
13013;BME280;22580;57.670;12.006;2023-11-19T02:08:44;101126.94;;;14.29;36.90
13013;BME280;22580;57.670;12.006;2023-11-19T02:11:11;101119.72;;;14.29;36.83
13013;BME280;22580;57.670;12.006;2023-11-19T02:13:38;101122.28;;;14.31;36.83
13013;BME280;22580;57.670;12.006;2023-11-19T02:16:07;101104.84;;;13.81;37.23
13013;BME280;22580;57.670;12.006;2023-11-19T02:18:36;101095.41;;;14.08;37.00
13013;BME280;22580;57.670;12.006;2023-11-19T02:21:04;101100.16;;;14.50;36.71
13013;BME280;22580;57.670;12.006;2023-11-19T02:23:33;101097.47;;;14.61;36.16
13013;BME280;22580;57.670;12.006;2023-11-19T02:26:05;101084.53;;;14.43;36.58
13013;BME280;22580;57.670;12.006;2023-11-19T02:28:36;101078.28;;;14.32;36.80
13013;BME280;22580;57.670;12.006;2023-11-19T02:31:03;101069.38;;;14.20;36.94
13013;BME280;22580;57.670;12.006;2023-11-19T02:33:35;101058.09;;;14.37;36.56
13013;BME280;22580;57.670;12.006;2023-11-19T02:36:03;101063.47;;;14.37;36.53
13013;BME280;22580;57.670;12.006;2023-11-19T02:38:30;101051.75;;;14.50;36.46
13013;BME280;22580;57.670;12.006;2023-11-19T02:40:57;101038.59;;;14.13;36.75
13013;BME280;22580;57.670;12.006;2023-11-19T02:43:24;101030.94;;;13.64;37.63
13013;BME280;22580;57.670;12.006;2023-11-19T02:45:53;101025.78;;;14.05;37.09
13013;BME280;22580;57.670;12.006;2023-11-19T02:48:21;101003.25;;;14.29;36.89
13013;BME280;22580;57.670;12.006;2023-11-19T02:50:48;101005.97;;;14.06;36.98
13013;BME280;22580;57.670;12.006;2023-11-19T02:53:15;101010.47;;;14.17;37.22
13013;BME280;22580;57.670;12.006;2023-11-19T02:55:43;100997.88;;;14.29;36.93
13013;BME280;22580;57.670;12.006;2023-11-19T02:58:14;100992.63;;;14.16;37.04
13013;BME280;22580;57.670;12.006;2023-11-19T03:00:49;100993.13;;;14.21;36.98
13013;BME280;22580;57.670;12.006;2023-11-19T03:03:24;100986.88;;;14.21;36.85
13013;BME280;22580;57.670;12.006;2023-11-19T03:05:54;100990.47;;;13.99;37.41
13013;BME280;22580;57.670;12.006;2023-11-19T03:08:21;100980.25;;;13.82;37.73
13013;BME280;22580;57.670;12.006;2023-11-19T03:10:48;100981.63;;;13.76;37.56
13013;BME280;22580;57.670;12.006;2023-11-19T03:13:15;100968.69;;;13.48;37.99
13013;BME280;22580;57.670;12.006;2023-11-19T03:15:43;100976.06;;;13.89;37.74
13013;BME280;22580;57.670;12.006;2023-11-19T03:18:10;100960.97;;;13.76;37.76
13013;BME280;22580;57.670;12.006;2023-11-19T03:20:38;100945.47;;;13.58;38.15
13013;BME280;22580;57.670;12.006;2023-11-19T03:23:05;100960.00;;;13.44;38.56
13013;BME280;22580;57.670;12.006;2023-11-19T03:25:33;100948.03;;;13.70;38.32
13013;BME280;22580;57.670;12.006;2023-11-19T03:28:02;100928.84;;;13.86;38.05
13013;BME280;22580;57.670;12.006;2023-11-19T03:30:29;100934.50;;;14.04;37.75
13013;BME280;22580;57.670;12.006;2023-11-19T03:32:57;100934.72;;;13.80;37.84
13013;BME280;22580;57.670;12.006;2023-11-19T03:35:25;100930.00;;;13.93;37.81
13013;BME280;22580;57.670;12.006;2023-11-19T03:37:54;100925.72;;;14.02;37.68
13013;BME280;22580;57.670;12.006;2023-11-19T03:40:21;100908.34;;;14.06;37.87
13013;BME280;22580;57.670;12.006;2023-11-19T03:42:50;100912.31;;;13.91;37.77
13013;BME280;22580;57.670;12.006;2023-11-19T03:45:17;100906.38;;;13.76;38.10
13013;BME280;22580;57.670;12.006;2023-11-19T03:47:44;100909.59;;;13.36;39.08
13013;BME280;22580;57.670;12.006;2023-11-19T03:50:11;100895.56;;;13.44;38.74
13013;BME280;22580;57.670;12.006;2023-11-19T03:52:38;100897.97;;;13.69;38.71
13013;BME280;22580;57.670;12.006;2023-11-19T03:55:07;100878.22;;;13.91;38.15
13013;BME280;22580;57.670;12.006;2023-11-19T03:57:35;100882.63;;;13.38;38.63
13013;BME280;22580;57.670;12.006;2023-11-19T04:00:03;100875.63;;;14.01;37.90
13013;BME280;22580;57.670;12.006;2023-11-19T04:02:34;100865.63;;;13.60;38.62
13013;BME280;22580;57.670;12.006;2023-11-19T04:05:01;100857.44;;;13.72;38.60
13013;BME280;22580;57.670;12.006;2023-11-19T04:07:28;100854.81;;;13.39;39.04
13013;BME280;22580;57.670;12.006;2023-11-19T04:09:55;100848.44;;;13.06;39.29
13013;BME280;22580;57.670;12.006;2023-11-19T04:12:24;100828.09;;;13.26;39.37
13013;BME280;22580;57.670;12.006;2023-11-19T04:14:51;100834.75;;;13.54;38.94
13013;BME280;22580;57.670;12.006;2023-11-19T04:17:18;100831.50;;;13.28;39.08
13013;BME280;22580;57.670;12.006;2023-11-19T04:19:45;100829.84;;;13.70;38.91
13013;BME280;22580;57.670;12.006;2023-11-19T04:22:12;100835.53;;;13.34;38.86
13013;BME280;22580;57.670;12.006;2023-11-19T04:24:39;100834.97;;;13.62;38.49
13013;BME280;22580;57.670;12.006;2023-11-19T04:27:06;100826.25;;;13.81;38.51
13013;BME280;22580;57.670;12.006;2023-11-19T04:29:35;100836.28;;;13.79;39.03
13013;BME280;22580;57.670;12.006;2023-11-19T04:32:03;100831.34;;;13.52;39.06
13013;BME280;22580;57.670;12.006;2023-11-19T04:34:30;100808.69;;;13.23;39.83
13013;BME280;22580;57.670;12.006;2023-11-19T04:36:57;100829.06;;;13.36;39.44
13013;BME280;22580;57.670;12.006;2023-11-19T04:39:28;100810.72;;;13.85;38.81
13013;BME280;22580;57.670;12.006;2023-11-19T04:41:55;100811.03;;;13.70;39.21
13013;BME280;22580;57.670;12.006;2023-11-19T04:44:22;100800.03;;;13.73;39.33
13013;BME280;22580;57.670;12.006;2023-11-19T04:46:51;100780.75;;;13.68;39.17
13013;BME280;22580;57.670;12.006;2023-11-19T04:49:18;100797.44;;;14.25;38.34
13013;BME280;22580;57.670;12.006;2023-11-19T04:51:46;100795.06;;;14.31;37.99
13013;BME280;22580;57.670;12.006;2023-11-19T04:54:14;100771.91;;;13.98;38.32
13013;BME280;22580;57.670;12.006;2023-11-19T04:56:45;100769.00;;;14.43;38.12
13013;BME280;22580;57.670;12.006;2023-11-19T04:59:13;100783.78;;;14.37;38.22
13013;BME280;22580;57.670;12.006;2023-11-19T05:01:40;100767.19;;;14.32;38.15
13013;BME280;22580;57.670;12.006;2023-11-19T05:04:09;100749.63;;;13.66;38.94
13013;BME280;22580;57.670;12.006;2023-11-19T05:06:38;100761.63;;;14.03;38.61
13013;BME280;22580;57.670;12.006;2023-11-19T05:09:04;100765.84;;;14.17;38.72
13013;BME280;22580;57.670;12.006;2023-11-19T05:11:33;100761.66;;;13.51;39.52
13013;BME280;22580;57.670;12.006;2023-11-19T05:14:02;100758.69;;;14.06;38.98
13013;BME280;22580;57.670;12.006;2023-11-19T05:16:30;100753.63;;;14.13;38.63
13013;BME280;22580;57.670;12.006;2023-11-19T05:18:57;100736.38;;;14.36;38.15
13013;BME280;22580;57.670;12.006;2023-11-19T05:21:26;100749.91;;;14.25;38.51
13013;BME280;22580;57.670;12.006;2023-11-19T05:23:53;100744.25;;;14.28;38.58
13013;BME280;22580;57.670;12.006;2023-11-19T05:26:20;100750.03;;;14.45;38.14
13013;BME280;22580;57.670;12.006;2023-11-19T05:28:48;100747.22;;;14.46;38.23
13013;BME280;22580;57.670;12.006;2023-11-19T05:31:16;100709.88;;;14.32;38.00
13013;BME280;22580;57.670;12.006;2023-11-19T05:33:44;100743.72;;;13.93;38.95
13013;BME280;22580;57.670;12.006;2023-11-19T05:36:11;100734.16;;;14.41;38.25
13013;BME280;22580;57.670;12.006;2023-11-19T05:38:39;100733.66;;;14.06;38.88
13013;BME280;22580;57.670;12.006;2023-11-19T05:41:07;100743.28;;;14.50;38.50
13013;BME280;22580;57.670;12.006;2023-11-19T05:43:34;100731.94;;;14.05;39.10
13013;BME280;22580;57.670;12.006;2023-11-19T05:46:01;100728.84;;;14.30;38.77
13013;BME280;22580;57.670;12.006;2023-11-19T05:48:28;100727.09;;;13.78;39.83
13013;BME280;22580;57.670;12.006;2023-11-19T05:50:55;100737.25;;;13.95;39.33
13013;BME280;22580;57.670;12.006;2023-11-19T05:53:22;100729.84;;;13.88;39.25
13013;BME280;22580;57.670;12.006;2023-11-19T05:55:51;100723.28;;;14.01;39.44
13013;BME280;22580;57.670;12.006;2023-11-19T05:58:23;100719.69;;;14.12;39.11
13013;BME280;22580;57.670;12.006;2023-11-19T06:00:54;100724.31;;;14.31;39.15
13013;BME280;22580;57.670;12.006;2023-11-19T06:03:21;100723.94;;;14.66;38.36
13013;BME280;22580;57.670;12.006;2023-11-19T06:05:48;100707.53;;;14.69;38.20
13013;BME280;22580;57.670;12.006;2023-11-19T06:08:15;100718.31;;;14.69;38.20
13013;BME280;22580;57.670;12.006;2023-11-19T06:10:43;100710.44;;;14.96;37.91
13013;BME280;22580;57.670;12.006;2023-11-19T06:13:13;100712.19;;;14.16;38.99
13013;BME280;22580;57.670;12.006;2023-11-19T06:15:40;100713.59;;;14.40;38.97
13013;BME280;22580;57.670;12.006;2023-11-19T06:18:07;100718.09;;;14.51;38.83
13013;BME280;22580;57.670;12.006;2023-11-19T06:20:35;100717.63;;;14.86;38.33
13013;BME280;22580;57.670;12.006;2023-11-19T06:23:02;100709.38;;;14.68;38.58
13013;BME280;22580;57.670;12.006;2023-11-19T06:25:29;100709.31;;;14.28;39.12
13013;BME280;22580;57.670;12.006;2023-11-19T06:27:56;100707.00;;;14.85;38.35
13013;BME280;22580;57.670;12.006;2023-11-19T06:30:24;100702.63;;;14.23;39.36
13013;BME280;22580;57.670;12.006;2023-11-19T06:32:53;100695.41;;;14.23;39.40
13013;BME280;22580;57.670;12.006;2023-11-19T06:35:20;100696.16;;;14.04;39.76
13013;BME280;22580;57.670;12.006;2023-11-19T06:37:47;100688.13;;;14.14;39.72
13013;BME280;22580;57.670;12.006;2023-11-19T06:40:14;100691.28;;;14.19;40.17
13013;BME280;22580;57.670;12.006;2023-11-19T06:42:42;100682.19;;;14.10;40.15
13013;BME280;22580;57.670;12.006;2023-11-19T06:45:10;100684.28;;;14.37;40.00
13013;BME280;22580;57.670;12.006;2023-11-19T06:47:40;100661.75;;;14.29;39.94
13013;BME280;22580;57.670;12.006;2023-11-19T06:50:07;100668.94;;;13.98;40.20
13013;BME280;22580;57.670;12.006;2023-11-19T06:52:34;100671.50;;;13.99;40.31
13013;BME280;22580;57.670;12.006;2023-11-19T06:55:03;100674.34;;;14.49;39.65
13013;BME280;22580;57.670;12.006;2023-11-19T06:57:32;100658.25;;;14.38;39.70
13013;BME280;22580;57.670;12.006;2023-11-19T06:59:59;100668.47;;;14.84;39.33
13013;BME280;22580;57.670;12.006;2023-11-19T07:02:26;100660.59;;;14.22;39.98
13013;BME280;22580;57.670;12.006;2023-11-19T07:04:54;100653.69;;;14.29;39.85
13013;BME280;22580;57.670;12.006;2023-11-19T07:07:21;100643.69;;;14.10;40.44
13013;BME280;22580;57.670;12.006;2023-11-19T07:09:48;100648.22;;;14.40;40.21
13013;BME280;22580;57.670;12.006;2023-11-19T07:12:15;100628.63;;;14.59;39.67
13013;BME280;22580;57.670;12.006;2023-11-19T07:14:42;100633.72;;;14.52;39.83
13013;BME280;22580;57.670;12.006;2023-11-19T07:17:10;100554.63;;;14.24;39.65
13013;BME280;22580;57.670;12.006;2023-11-19T07:19:37;100631.31;;;14.59;39.99
13013;BME280;22580;57.670;12.006;2023-11-19T07:22:06;100629.31;;;14.51;39.87
13013;BME280;22580;57.670;12.006;2023-11-19T07:24:33;100621.00;;;14.33;40.33
13013;BME280;22580;57.670;12.006;2023-11-19T07:27:00;100624.75;;;14.42;40.41
13013;BME280;22580;57.670;12.006;2023-11-19T07:29:29;100580.75;;;14.43;39.86
13013;BME280;22580;57.670;12.006;2023-11-19T07:31:57;100590.75;;;14.41;39.91
13013;BME280;22580;57.670;12.006;2023-11-19T07:34:24;100621.84;;;14.55;40.01
13013;BME280;22580;57.670;12.006;2023-11-19T07:36:51;100605.97;;;14.52;40.08
13013;BME280;22580;57.670;12.006;2023-11-19T07:39:20;100609.53;;;14.31;40.56
13013;BME280;22580;57.670;12.006;2023-11-19T07:41:47;100604.09;;;14.42;40.89
13013;BME280;22580;57.670;12.006;2023-11-19T07:44:14;100602.44;;;14.51;40.36
13013;BME280;22580;57.670;12.006;2023-11-19T07:46:42;100600.16;;;14.16;41.16
13013;BME280;22580;57.670;12.006;2023-11-19T07:49:10;100597.19;;;14.50;40.44
13013;BME280;22580;57.670;12.006;2023-11-19T07:51:38;100600.16;;;14.16;41.50
13013;BME280;22580;57.670;12.006;2023-11-19T07:54:05;100592.22;;;14.15;41.49
13013;BME280;22580;57.670;12.006;2023-11-19T07:56:34;100587.91;;;14.02;41.86
13013;BME280;22580;57.670;12.006;2023-11-19T07:59:01;100601.72;;;14.19;41.85
13013;BME280;22580;57.670;12.006;2023-11-19T08:01:28;100599.28;;;14.46;41.33
13013;BME280;22580;57.670;12.006;2023-11-19T08:03:55;100587.41;;;14.49;41.09
13013;BME280;22580;57.670;12.006;2023-11-19T08:06:22;100584.38;;;14.02;41.81
13013;BME280;22580;57.670;12.006;2023-11-19T08:08:49;100603.00;;;14.55;41.19
13013;BME280;22580;57.670;12.006;2023-11-19T08:11:17;100603.28;;;14.52;41.53
13013;BME280;22580;57.670;12.006;2023-11-19T08:13:46;100593.00;;;15.34;40.16
13013;BME280;22580;57.670;12.006;2023-11-19T08:16:13;100584.91;;;15.15;40.27
13013;BME280;22580;57.670;12.006;2023-11-19T08:18:41;100587.47;;;14.97;40.59
13013;BME280;22580;57.670;12.006;2023-11-19T08:21:08;100578.69;;;15.04;40.35
13013;BME280;22580;57.670;12.006;2023-11-19T08:23:36;100583.22;;;15.33;40.28
13013;BME280;22580;57.670;12.006;2023-11-19T08:26:04;100588.72;;;15.41;39.98
13013;BME280;22580;57.670;12.006;2023-11-19T08:28:31;100576.09;;;15.51;39.83
13013;BME280;22580;57.670;12.006;2023-11-19T08:31:01;100584.03;;;15.53;39.86
13013;BME280;22580;57.670;12.006;2023-11-19T08:33:29;100582.78;;;15.57;39.64
13013;BME280;22580;57.670;12.006;2023-11-19T08:35:56;100492.84;;;14.92;40.06
13013;BME280;22580;57.670;12.006;2023-11-19T08:38:24;100547.06;;;15.26;39.90
13013;BME280;22580;57.670;12.006;2023-11-19T08:40:51;100555.44;;;15.32;39.96
13013;BME280;22580;57.670;12.006;2023-11-19T08:43:18;100572.25;;;15.54;39.90
13013;BME280;22580;57.670;12.006;2023-11-19T08:45:45;100570.69;;;15.51;39.99
13013;BME280;22580;57.670;12.006;2023-11-19T08:48:15;100559.66;;;15.45;40.33
13013;BME280;22580;57.670;12.006;2023-11-19T08:50:42;100560.22;;;15.38;40.10
13013;BME280;22580;57.670;12.006;2023-11-19T08:53:09;100551.44;;;15.36;40.30
13013;BME280;22580;57.670;12.006;2023-11-19T08:55:38;100553.41;;;15.44;40.47
13013;BME280;22580;57.670;12.006;2023-11-19T08:58:05;100558.69;;;15.36;40.50
13013;BME280;22580;57.670;12.006;2023-11-19T09:00:32;100555.84;;;15.28;40.90
13013;BME280;22580;57.670;12.006;2023-11-19T09:02:59;100552.53;;;15.63;40.43
13013;BME280;22580;57.670;12.006;2023-11-19T09:05:28;100549.50;;;15.09;41.33
13013;BME280;22580;57.670;12.006;2023-11-19T09:07:55;100543.38;;;15.27;40.97
13013;BME280;22580;57.670;12.006;2023-11-19T09:10:22;100542.44;;;15.74;40.52
13013;BME280;22580;57.670;12.006;2023-11-19T09:12:49;100546.19;;;15.45;40.80
13013;BME280;22580;57.670;12.006;2023-11-19T09:15:16;100545.00;;;15.66;40.53
13013;BME280;22580;57.670;12.006;2023-11-19T09:17:42;100549.47;;;15.85;40.11
13013;BME280;22580;57.670;12.006;2023-11-19T09:20:11;100538.66;;;15.48;40.89
13013;BME280;22580;57.670;12.006;2023-11-19T09:22:45;100543.75;;;15.51;40.85
13013;BME280;22580;57.670;12.006;2023-11-19T09:25:12;100545.22;;;15.36;41.18
13013;BME280;22580;57.670;12.006;2023-11-19T09:27:42;100538.63;;;15.67;40.74
13013;BME280;22580;57.670;12.006;2023-11-19T09:30:10;100539.63;;;16.03;40.01
13013;BME280;22580;57.670;12.006;2023-11-19T09:32:37;100536.31;;;15.82;40.45
13013;BME280;22580;57.670;12.006;2023-11-19T09:35:05;100530.81;;;15.64;40.66
13013;BME280;22580;57.670;12.006;2023-11-19T09:37:32;100520.25;;;15.90;40.37
13013;BME280;22580;57.670;12.006;2023-11-19T09:40:01;100528.13;;;16.01;39.87
13013;BME280;22580;57.670;12.006;2023-11-19T09:42:28;100507.78;;;15.43;40.76
13013;BME280;22580;57.670;12.006;2023-11-19T09:44:56;100535.56;;;16.17;39.92
13013;BME280;22580;57.670;12.006;2023-11-19T09:47:25;100531.47;;;16.13;39.91
13013;BME280;22580;57.670;12.006;2023-11-19T09:49:55;100519.44;;;16.08;40.09
13013;BME280;22580;57.670;12.006;2023-11-19T09:52:22;100519.66;;;16.24;39.92
13013;BME280;22580;57.670;12.006;2023-11-19T09:54:50;100477.72;;;15.84;40.07
13013;BME280;22580;57.670;12.006;2023-11-19T09:57:18;100514.47;;;16.13;40.15
13013;BME280;22580;57.670;12.006;2023-11-19T09:59:46;100503.03;;;16.01;40.27
13013;BME280;22580;57.670;12.006;2023-11-19T10:02:14;100505.31;;;15.96;40.41
13013;BME280;22580;57.670;12.006;2023-11-19T10:04:47;100505.28;;;15.68;41.06
13013;BME280;22580;57.670;12.006;2023-11-19T10:07:17;100504.63;;;15.94;40.65
13013;BME280;22580;57.670;12.006;2023-11-19T10:09:44;100502.72;;;16.04;40.59
13013;BME280;22580;57.670;12.006;2023-11-19T10:12:12;100501.53;;;16.16;40.21
13013;BME280;22580;57.670;12.006;2023-11-19T10:14:41;100494.91;;;16.28;40.15
13013;BME280;22580;57.670;12.006;2023-11-19T10:17:09;100483.44;;;16.26;40.31
13013;BME280;22580;57.670;12.006;2023-11-19T10:19:36;100461.03;;;16.44;39.63
13013;BME280;22580;57.670;12.006;2023-11-19T10:22:04;100472.88;;;16.51;39.96
13013;BME280;22580;57.670;12.006;2023-11-19T10:24:32;100470.31;;;16.14;40.58
13013;BME280;22580;57.670;12.006;2023-11-19T10:27:00;100470.66;;;16.46;39.92
13013;BME280;22580;57.670;12.006;2023-11-19T10:29:29;100422.75;;;16.48;39.50
13013;BME280;22580;57.670;12.006;2023-11-19T10:31:58;100451.31;;;16.68;39.67
13013;BME280;22580;57.670;12.006;2023-11-19T10:34:26;100444.44;;;16.56;39.63
13013;BME280;22580;57.670;12.006;2023-11-19T10:36:53;100458.00;;;16.29;40.43
13013;BME280;22580;57.670;12.006;2023-11-19T10:39:20;100453.53;;;16.37;40.25
13013;BME280;22580;57.670;12.006;2023-11-19T10:41:49;100453.91;;;16.60;39.98
13013;BME280;22580;57.670;12.006;2023-11-19T10:44:31;100450.69;;;16.75;39.69
13013;BME280;22580;57.670;12.006;2023-11-19T10:47:00;100455.50;;;17.07;39.38
13013;BME280;22580;57.670;12.006;2023-11-19T10:49:27;100450.53;;;16.41;40.24
13013;BME280;22580;57.670;12.006;2023-11-19T10:51:55;100449.34;;;16.61;40.15
13013;BME280;22580;57.670;12.006;2023-11-19T10:54:24;100444.81;;;16.79;39.63
13013;BME280;22580;57.670;12.006;2023-11-19T10:56:55;100439.69;;;17.12;39.32
13013;BME280;22580;57.670;12.006;2023-11-19T10:59:28;100443.97;;;16.79;39.58
13013;BME280;22580;57.670;12.006;2023-11-19T11:01:57;100408.22;;;16.41;40.00
13013;BME280;22580;57.670;12.006;2023-11-19T11:04:27;100441.75;;;16.38;40.65
13013;BME280;22580;57.670;12.006;2023-11-19T11:06:58;100438.13;;;16.30;40.78
13013;BME280;22580;57.670;12.006;2023-11-19T11:09:27;100436.25;;;16.13;41.28
13013;BME280;22580;57.670;12.006;2023-11-19T11:11:54;100434.19;;;16.24;41.00
13013;BME280;22580;57.670;12.006;2023-11-19T11:14:24;100442.88;;;16.18;42.58
13013;BME280;22580;57.670;12.006;2023-11-19T11:16:53;100424.78;;;16.28;41.20
13013;BME280;22580;57.670;12.006;2023-11-19T11:19:20;100439.59;;;16.78;40.29
13013;BME280;22580;57.670;12.006;2023-11-19T11:21:53;100438.34;;;16.72;40.34
13013;BME280;22580;57.670;12.006;2023-11-19T11:27:48;100438.78;;;17.63;38.93
13013;BME280;22580;57.670;12.006;2023-11-19T11:30:26;100424.84;;;17.16;39.52
13013;BME280;22580;57.670;12.006;2023-11-19T11:33:05;100419.56;;;17.32;39.36
13013;BME280;22580;57.670;12.006;2023-11-19T11:35:41;100417.78;;;17.57;39.13
13013;BME280;22580;57.670;12.006;2023-11-19T11:38:15;100426.09;;;17.63;38.65
13013;BME280;22580;57.670;12.006;2023-11-19T11:40:43;100424.44;;;17.28;39.32
13013;BME280;22580;57.670;12.006;2023-11-19T11:49:25;100402.91;;;16.93;40.31
13013;BME280;22580;57.670;12.006;2023-11-19T11:52:02;100394.47;;;16.70;40.57
13013;BME280;22580;57.670;12.006;2023-11-19T11:54:41;100418.50;;;16.99;40.18
13013;BME280;22580;57.670;12.006;2023-11-19T11:57:08;100400.22;;;17.19;39.47
13013;BME280;22580;57.670;12.006;2023-11-19T11:59:47;100366.13;;;17.60;38.61
13013;BME280;22580;57.670;12.006;2023-11-19T12:02:16;100365.59;;;17.14;39.36
13013;BME280;22580;57.670;12.006;2023-11-19T12:04:50;100399.25;;;16.76;40.53
13013;BME280;22580;57.670;12.006;2023-11-19T12:07:21;100355.69;;;16.97;39.72
13013;BME280;22580;57.670;12.006;2023-11-19T12:09:52;100380.84;;;16.97;40.20
13013;BME280;22580;57.670;12.006;2023-11-19T12:12:26;100343.03;;;17.23;39.17
13013;BME280;22580;57.670;12.006;2023-11-19T12:15:01;100386.97;;;17.42;39.40
13013;BME280;22580;57.670;12.006;2023-11-19T12:17:46;100316.38;;;16.94;39.40
13013;BME280;22580;57.670;12.006;2023-11-19T12:20:22;100385.28;;;17.32;39.71
13013;BME280;22580;57.670;12.006;2023-11-19T12:22:50;100346.59;;;16.98;39.75
13013;BME280;22580;57.670;12.006;2023-11-19T12:25:19;100383.59;;;16.80;40.42
13013;BME280;22580;57.670;12.006;2023-11-19T12:27:49;100390.53;;;17.08;40.28
13013;BME280;22580;57.670;12.006;2023-11-19T12:30:21;100382.38;;;17.00;40.04
13013;BME280;22580;57.670;12.006;2023-11-19T12:32:50;100379.34;;;16.77;40.35
13013;BME280;22580;57.670;12.006;2023-11-19T12:35:23;100351.84;;;16.74;39.98
13013;BME280;22580;57.670;12.006;2023-11-19T12:37:52;100382.28;;;16.84;40.57
13013;BME280;22580;57.670;12.006;2023-11-19T12:40:21;100379.88;;;16.81;40.57
13013;BME280;22580;57.670;12.006;2023-11-19T12:42:50;100375.53;;;17.48;39.46
13013;BME280;22580;57.670;12.006;2023-11-19T12:45:18;100370.91;;;16.98;40.07
13013;BME280;22580;57.670;12.006;2023-11-19T12:47:47;100373.78;;;16.79;40.63
13013;BME280;22580;57.670;12.006;2023-11-19T12:50:17;100378.41;;;16.86;40.19
13013;BME280;22580;57.670;12.006;2023-11-19T12:52:56;100349.28;;;16.72;42.30
13013;BME280;22580;57.670;12.006;2023-11-19T12:55:26;100367.97;;;17.59;40.35